createdAt,value
2023-04-12T00:00:48.431Z,0.70
2023-04-12T00:03:20.377Z,0.88
2023-04-12T00:05:54.649Z,0.90
2023-04-12T00:08:33.648Z,1.25
2023-04-12T00:11:02.481Z,0.77
2023-04-12T00:13:30.685Z,0.88
2023-04-12T00:15:58.210Z,0.62
2023-04-12T00:18:26.052Z,0.95
2023-04-12T00:20:55.661Z,1.27
2023-04-12T00:23:23.069Z,1.40
2023-04-12T00:25:50.679Z,1.60
2023-04-12T00:28:18.834Z,0.77
2023-04-12T00:30:46.268Z,0.88
2023-04-12T00:33:13.672Z,1.17
2023-04-12T00:35:41.333Z,1.33
2023-04-12T00:38:10.816Z,1.27
2023-04-12T00:40:42.714Z,1.33
2023-04-12T00:43:15.628Z,1.48
2023-04-12T00:45:44.428Z,1.90
2023-04-12T00:48:12.752Z,0.88
2023-04-12T00:50:47.543Z,1.80
2023-04-12T00:53:15.892Z,1.50
2023-04-12T00:55:45.339Z,1.00
2023-04-12T00:58:14.355Z,0.90
2023-04-12T01:00:44.862Z,1.23
2023-04-12T01:03:13.843Z,0.60
2023-04-12T01:05:49.257Z,0.77
2023-04-12T01:08:28.636Z,1.33
2023-04-12T01:11:05.480Z,1.58
2023-04-12T01:13:42.630Z,1.42
2023-04-12T01:16:29.884Z,0.70
2023-04-12T01:19:03.766Z,1.73
2023-04-12T01:21:42.592Z,0.88
2023-04-12T01:24:26.722Z,0.57
2023-04-12T01:26:57.733Z,0.50
2023-04-12T01:29:27.730Z,1.40
2023-04-12T01:31:59.836Z,1.58
2023-04-12T01:34:30.313Z,1.83
2023-04-12T01:37:01.629Z,0.68
2023-04-12T01:39:33.593Z,0.95
2023-04-12T01:42:03.382Z,1.25
2023-04-12T01:44:30.877Z,1.23
2023-04-12T01:46:58.848Z,0.80
2023-04-12T01:49:32.354Z,1.15
2023-04-12T01:52:12.982Z,0.50
2023-04-12T01:54:42.988Z,0.88
2023-04-12T01:57:11.029Z,0.77
2023-04-12T01:59:43.642Z,0.93
2023-04-12T02:02:12.210Z,1.05
2023-04-12T02:04:40.851Z,1.10
2023-04-12T02:07:09.453Z,1.00
2023-04-12T02:09:40.025Z,1.45
2023-04-12T02:12:08.694Z,1.27
2023-04-12T02:14:37.095Z,2.90
2023-04-12T02:17:05.576Z,1.20
2023-04-12T02:19:33.345Z,1.95
2023-04-12T02:22:02.352Z,1.45
2023-04-12T02:24:30.072Z,1.37
2023-04-12T02:26:59.155Z,1.15
2023-04-12T02:29:27.421Z,1.40
2023-04-12T02:31:54.886Z,1.30
2023-04-12T02:34:23.165Z,1.37
2023-04-12T02:36:51.223Z,1.17
2023-04-12T02:39:19.018Z,0.93
2023-04-12T02:41:47.318Z,1.37
2023-04-12T02:44:15.955Z,1.00
2023-04-12T02:46:44.335Z,1.98
2023-04-12T02:49:12.052Z,1.60
2023-04-12T02:51:40.767Z,1.27
2023-04-12T02:54:08.431Z,1.10
2023-04-12T02:56:37.051Z,1.58
2023-04-12T02:59:06.863Z,1.08
2023-04-12T03:01:35.087Z,0.95
2023-04-12T03:04:04.001Z,1.15
2023-04-12T03:06:32.284Z,1.05
2023-04-12T03:09:00.420Z,1.12
2023-04-12T03:11:28.013Z,0.98
2023-04-12T03:13:56.173Z,1.42
2023-04-12T03:16:25.787Z,1.42
2023-04-12T03:18:54.032Z,1.37
2023-04-12T03:21:22.308Z,1.08
2023-04-12T03:23:49.787Z,1.45
2023-04-12T03:26:20.659Z,1.48
2023-04-12T03:28:49.439Z,2.15
2023-04-12T03:31:21.022Z,1.75
2023-04-12T03:33:48.986Z,1.58
2023-04-12T03:36:17.531Z,1.90
2023-04-12T03:39:05.243Z,1.12
2023-04-12T03:41:33.746Z,1.30
2023-04-12T03:44:02.665Z,2.12
2023-04-12T03:46:31.327Z,1.00
2023-04-12T03:48:59.667Z,1.17
2023-04-12T03:51:27.378Z,1.02
2023-04-12T03:53:55.732Z,0.93
2023-04-12T03:56:23.518Z,1.48
2023-04-12T03:58:51.401Z,1.58
2023-04-12T04:01:19.935Z,2.25
2023-04-12T04:03:48.326Z,1.35
2023-04-12T04:06:17.559Z,1.02
2023-04-12T04:08:45.947Z,1.58
2023-04-12T04:11:14.363Z,1.85
2023-04-12T04:13:42.371Z,1.40
2023-04-12T04:16:11.063Z,1.75
2023-04-12T04:18:39.586Z,1.60
2023-04-12T04:21:07.868Z,1.12
2023-04-12T04:23:39.175Z,1.10
2023-04-12T04:26:10.490Z,1.30
2023-04-12T04:28:39.649Z,1.27
2023-04-12T04:31:07.952Z,1.60
2023-04-12T04:33:36.741Z,1.58
2023-04-12T04:36:04.809Z,2.72
2023-04-12T04:38:33.812Z,1.67
2023-04-12T04:41:05.363Z,1.30
2023-04-12T04:43:35.284Z,2.00
2023-04-12T04:46:03.149Z,1.85
2023-04-12T04:48:30.788Z,3.15
2023-04-12T04:51:00.648Z,2.03
2023-04-12T04:53:28.053Z,2.42
2023-04-12T04:56:01.086Z,1.27
2023-04-12T04:58:30.350Z,2.25
2023-04-12T05:00:59.873Z,1.62
2023-04-12T05:03:30.955Z,1.37
2023-04-12T05:06:01.140Z,1.48
2023-04-12T05:08:28.894Z,1.85
2023-04-12T05:10:57.203Z,1.37
2023-04-12T05:13:25.943Z,1.02
2023-04-12T05:15:53.844Z,1.17
2023-04-12T05:18:21.291Z,2.95
2023-04-12T05:20:49.333Z,1.42
2023-04-12T05:23:17.448Z,0.60
2023-04-12T05:25:50.103Z,1.17
2023-04-12T05:28:18.034Z,1.17
2023-04-12T05:30:46.223Z,1.80
2023-04-12T05:33:14.091Z,1.45
2023-04-12T05:35:43.198Z,1.05
2023-04-12T05:38:11.820Z,1.50
2023-04-12T05:40:39.465Z,1.27
2023-04-12T05:43:08.574Z,2.05
2023-04-12T05:45:36.267Z,0.82
2023-04-12T05:48:03.972Z,2.25
2023-04-12T05:50:32.040Z,2.08
2023-04-12T05:53:01.584Z,0.62
2023-04-12T05:55:30.023Z,1.40
2023-04-12T05:57:58.674Z,1.75
2023-04-12T06:00:27.788Z,1.23
2023-04-12T06:02:57.128Z,1.98
2023-04-12T06:05:24.996Z,2.37
2023-04-12T06:07:52.451Z,1.50
2023-04-12T06:10:20.229Z,1.50
2023-04-12T06:12:48.752Z,2.25
2023-04-12T06:15:16.354Z,1.00
2023-04-12T06:17:45.230Z,1.17
2023-04-12T06:20:13.005Z,1.67
2023-04-12T06:22:40.438Z,2.25
2023-04-12T06:25:08.565Z,2.92
2023-04-12T06:27:36.323Z,2.47
2023-04-12T06:30:04.253Z,2.95
2023-04-12T06:32:32.434Z,1.42
2023-04-12T06:35:00.670Z,1.35
2023-04-12T06:37:28.283Z,1.05
2023-04-12T06:39:56.015Z,1.08
2023-04-12T06:42:23.469Z,0.80
2023-04-12T06:44:50.864Z,0.93
2023-04-12T06:47:18.519Z,1.27
2023-04-12T06:49:45.985Z,1.60
2023-04-12T06:52:13.366Z,1.10
2023-04-12T06:54:41.918Z,1.05
2023-04-12T06:57:11.237Z,1.50
2023-04-12T06:59:38.781Z,1.33
2023-04-12T07:02:07.861Z,1.90
2023-04-12T07:04:35.341Z,2.37
2023-04-12T07:07:02.702Z,1.35
2023-04-12T07:09:33.515Z,2.22
2023-04-12T07:12:02.275Z,0.95
2023-04-12T07:14:30.032Z,1.98
2023-04-12T07:16:57.444Z,1.55
2023-04-12T07:19:25.072Z,1.42
2023-04-12T07:21:52.739Z,3.37
2023-04-12T07:24:20.123Z,1.20
2023-04-12T07:26:48.330Z,1.45
2023-04-12T07:29:17.339Z,2.33
2023-04-12T07:31:45.679Z,2.42
2023-04-12T07:34:13.238Z,0.90
2023-04-12T07:36:40.985Z,2.15
2023-04-12T07:39:11.968Z,1.83
2023-04-12T07:41:39.656Z,1.40
2023-04-12T07:44:07.331Z,2.08
2023-04-12T07:46:34.825Z,1.30
2023-04-12T07:49:02.252Z,1.33
2023-04-12T07:51:30.050Z,1.48
2023-04-12T07:53:57.598Z,1.25
2023-04-12T07:56:25.669Z,1.25
2023-04-12T07:58:53.320Z,1.08
2023-04-12T08:01:20.828Z,1.15
2023-04-12T08:03:48.534Z,0.93
2023-04-12T08:06:17.446Z,0.95
2023-04-12T08:08:45.053Z,1.77
2023-04-12T08:11:12.722Z,1.73
2023-04-12T08:13:40.114Z,1.65
2023-04-12T08:16:08.995Z,1.10
2023-04-12T08:18:36.810Z,1.10
2023-04-12T08:21:04.350Z,0.98
2023-04-12T08:23:31.775Z,1.25
2023-04-12T08:26:03.776Z,1.50
2023-04-12T08:28:31.486Z,1.08
2023-04-12T08:30:59.653Z,1.33
2023-04-12T08:33:27.531Z,1.17
2023-04-12T08:35:55.310Z,0.95
2023-04-12T08:38:30.645Z,0.93
2023-04-12T08:41:09.304Z,1.40
2023-04-12T08:43:38.404Z,2.35
2023-04-12T08:46:07.609Z,1.20
2023-04-12T08:48:36.208Z,2.08
2023-04-12T08:51:04.514Z,1.70
2023-04-12T08:53:33.599Z,1.35
2023-04-12T08:56:01.267Z,1.80
2023-04-12T08:58:29.874Z,2.25
2023-04-12T09:00:57.610Z,1.70
2023-04-12T09:03:25.492Z,1.73
2023-04-12T09:05:53.270Z,0.90
2023-04-12T09:08:20.668Z,3.22
2023-04-12T09:10:48.076Z,2.97
2023-04-12T09:13:15.732Z,2.08
2023-04-12T09:15:50.389Z,2.67
2023-04-12T09:18:18.834Z,1.92
2023-04-12T09:20:46.539Z,1.70
2023-04-12T09:23:21.700Z,1.23
2023-04-12T09:25:52.773Z,1.73
2023-04-12T09:28:27.527Z,1.77
2023-04-12T09:30:56.624Z,1.33
2023-04-12T09:33:34.396Z,2.47
2023-04-12T09:36:03.235Z,2.60
2023-04-12T09:38:31.450Z,0.77
2023-04-12T09:41:21.551Z,1.40
2023-04-12T09:43:51.459Z,1.92
2023-04-12T09:46:18.926Z,1.77
2023-04-12T09:48:51.533Z,1.92
2023-04-12T09:51:36.443Z,1.60
2023-04-12T09:54:06.458Z,3.23
2023-04-12T09:56:35.923Z,1.40
2023-04-12T09:59:05.033Z,1.27
2023-04-12T10:01:38.189Z,0.82
2023-04-12T10:04:07.737Z,1.10
2023-04-12T10:06:37.115Z,1.98
2023-04-12T10:09:05.045Z,1.05
2023-04-12T10:11:34.228Z,1.08
2023-04-12T10:14:03.001Z,1.02
2023-04-12T10:16:31.164Z,2.15
2023-04-12T10:19:02.246Z,1.42
2023-04-12T10:21:30.284Z,2.53
2023-04-12T10:23:58.245Z,1.35
2023-04-12T10:26:26.594Z,1.37
2023-04-12T10:29:29.243Z,2.42
2023-04-12T10:31:58.709Z,1.25
2023-04-12T10:34:30.462Z,1.77
2023-04-12T10:37:01.866Z,1.62
2023-04-12T10:39:42.987Z,1.48
2023-04-12T10:42:25.296Z,1.87
2023-04-12T10:44:54.904Z,1.40
2023-04-12T10:47:54.614Z,1.62
2023-04-12T10:50:30.124Z,1.70
2023-04-12T10:53:12.602Z,1.95
2023-04-12T10:55:41.210Z,1.65
2023-04-12T10:58:10.031Z,1.12
2023-04-12T11:01:06.734Z,1.27
2023-04-12T11:03:34.677Z,1.33
2023-04-12T11:06:20.012Z,1.37
2023-04-12T11:08:56.498Z,1.35
2023-04-12T11:11:25.535Z,1.80
2023-04-12T11:13:57.205Z,1.35
2023-04-12T11:16:24.599Z,1.67
2023-04-12T11:18:52.123Z,1.87
2023-04-12T11:21:20.359Z,0.82
2023-04-12T11:23:47.974Z,1.45
2023-04-12T11:26:20.438Z,1.45
2023-04-12T11:28:50.233Z,1.02
2023-04-12T11:31:20.280Z,1.33
2023-04-12T11:33:47.962Z,1.20
2023-04-12T11:36:15.412Z,1.17
2023-04-12T11:38:45.952Z,1.33
2023-04-12T11:41:14.792Z,0.95
2023-04-12T11:43:42.662Z,1.58
2023-04-12T11:46:10.567Z,1.73
2023-04-12T11:48:40.975Z,1.35
2023-04-12T11:51:21.864Z,1.45
2023-04-12T11:53:53.005Z,1.33
2023-04-12T11:56:20.416Z,1.37
2023-04-12T11:58:48.080Z,1.48
2023-04-12T12:01:16.202Z,1.15
2023-04-12T12:03:44.252Z,1.02
2023-04-12T12:06:12.761Z,1.00
2023-04-12T12:08:40.642Z,1.50
2023-04-12T12:11:08.977Z,1.27
2023-04-12T12:13:52.934Z,0.95
2023-04-12T12:16:25.742Z,1.12
2023-04-12T12:18:53.386Z,0.82
2023-04-12T12:21:21.754Z,0.85
2023-04-12T12:23:49.720Z,0.95
2023-04-12T12:26:28.275Z,1.95
2023-04-12T12:28:57.613Z,1.65
2023-04-12T12:31:30.729Z,0.98
2023-04-12T12:34:02.665Z,1.25
2023-04-12T12:36:33.693Z,1.23
2023-04-12T12:39:12.362Z,1.30
2023-04-12T12:41:40.562Z,1.20
2023-04-12T12:44:08.926Z,1.10
2023-04-12T12:46:51.912Z,1.00
2023-04-12T12:49:23.188Z,2.28
2023-04-12T12:51:50.719Z,1.27
2023-04-12T12:54:32.205Z,1.00
2023-04-12T12:57:05.802Z,1.08
2023-04-12T12:59:33.180Z,1.12
2023-04-12T13:02:00.738Z,1.17
2023-04-12T13:04:28.793Z,2.25
2023-04-12T13:06:56.361Z,1.20
2023-04-12T13:09:23.769Z,1.00
2023-04-12T13:11:51.671Z,1.15
2023-04-12T13:14:19.088Z,1.33
2023-04-12T13:16:48.621Z,1.20
2023-04-12T13:19:16.477Z,1.27
2023-04-12T13:21:43.897Z,1.12
2023-04-12T13:24:11.272Z,1.98
2023-04-12T13:26:39.106Z,1.62
2023-04-12T13:29:06.621Z,1.30
2023-04-12T13:31:34.060Z,0.95
2023-04-12T13:34:01.813Z,1.20
2023-04-12T13:36:29.263Z,0.95
2023-04-12T13:38:56.899Z,1.48
2023-04-12T13:41:24.724Z,1.55
2023-04-12T13:43:52.114Z,1.42
2023-04-12T13:46:19.783Z,1.55
2023-04-12T13:48:47.465Z,1.30
2023-04-12T13:51:14.860Z,1.85
2023-04-12T13:53:42.305Z,1.12
2023-04-12T13:56:11.816Z,0.98
2023-04-12T13:58:41.766Z,0.90
2023-04-12T14:01:09.918Z,1.70
2023-04-12T14:03:37.678Z,1.27
2023-04-12T14:06:05.931Z,0.88
2023-04-12T14:08:34.089Z,1.20
2023-04-12T14:11:03.157Z,1.58
2023-04-12T14:13:30.730Z,0.52
2023-04-12T14:15:58.238Z,1.35
2023-04-12T14:18:26.017Z,1.40
2023-04-12T14:20:54.737Z,1.08
2023-04-12T14:23:24.895Z,1.37
2023-04-12T14:25:52.630Z,1.00
2023-04-12T14:28:21.647Z,1.10
2023-04-12T14:30:51.053Z,1.35
2023-04-12T14:33:18.953Z,1.45
2023-04-12T14:35:46.595Z,1.05
2023-04-12T14:38:14.271Z,1.27
2023-04-12T14:40:41.955Z,1.12
2023-04-12T14:43:09.387Z,1.52
2023-04-12T14:45:37.527Z,0.95
2023-04-12T14:48:05.299Z,1.10
2023-04-12T14:50:33.462Z,0.77
2023-04-12T14:53:00.986Z,1.30
2023-04-12T14:55:28.702Z,1.67
2023-04-12T14:57:56.122Z,0.95
2023-04-12T15:00:23.664Z,2.08
2023-04-12T15:02:51.526Z,1.25
2023-04-12T15:05:19.396Z,1.25
2023-04-12T15:07:47.909Z,1.00
2023-04-12T15:10:18.810Z,1.17
2023-04-12T15:12:46.609Z,1.15
2023-04-12T15:15:14.121Z,1.25
2023-04-12T15:17:41.845Z,1.67
2023-04-12T15:20:09.663Z,0.82
2023-04-12T15:22:37.743Z,1.50
2023-04-12T15:25:06.724Z,1.60
2023-04-12T15:27:34.209Z,1.37
2023-04-12T15:30:10.935Z,0.90
2023-04-12T15:32:41.404Z,0.90
2023-04-12T15:35:25.426Z,0.85
2023-04-12T15:37:55.467Z,0.85
2023-04-12T15:40:23.251Z,1.00
2023-04-12T15:42:50.646Z,1.52
2023-04-12T15:45:18.331Z,0.80
2023-04-12T15:47:46.188Z,0.85
2023-04-12T15:50:14.258Z,1.17
2023-04-12T15:52:44.225Z,1.27
2023-04-12T15:55:12.029Z,1.00
2023-04-12T15:57:39.724Z,1.05
2023-04-12T16:00:21.020Z,1.27
2023-04-12T16:02:57.430Z,0.85
2023-04-12T16:05:26.238Z,1.23
2023-04-12T16:07:54.412Z,1.15
2023-04-12T16:10:22.335Z,1.55
2023-04-12T16:12:51.874Z,1.35
2023-04-12T16:15:20.601Z,1.15
2023-04-12T16:17:49.132Z,0.93
2023-04-12T16:20:17.292Z,1.52
2023-04-12T16:22:45.919Z,1.17
2023-04-12T16:25:13.338Z,1.75
2023-04-12T16:27:41.312Z,0.95
2023-04-12T16:30:10.603Z,1.55
2023-04-12T16:32:38.270Z,1.48
2023-04-12T16:35:06.214Z,0.90
2023-04-12T16:37:34.511Z,1.60
2023-04-12T16:40:02.194Z,1.48
2023-04-12T16:42:31.871Z,1.33
2023-04-12T16:44:59.725Z,1.17
2023-04-12T16:47:27.252Z,1.87
2023-04-12T16:49:54.870Z,1.60
2023-04-12T16:52:23.287Z,1.52
2023-04-12T16:54:50.996Z,1.37
2023-04-12T16:57:18.521Z,0.88
2023-04-12T16:59:46.326Z,1.55
2023-04-12T17:02:14.535Z,1.35
2023-04-12T17:04:42.165Z,1.12
2023-04-12T17:07:10.471Z,1.60
2023-04-12T17:09:38.089Z,1.42
2023-04-12T17:12:06.763Z,0.93
2023-04-12T17:14:34.601Z,1.23
2023-04-12T17:17:03.815Z,1.17
2023-04-12T17:19:33.329Z,1.95
2023-04-12T17:22:01.102Z,1.20
2023-04-12T17:24:29.239Z,1.20
2023-04-12T17:26:57.347Z,1.85
2023-04-12T17:29:25.529Z,1.60
2023-04-12T17:31:55.024Z,1.75
2023-04-12T17:34:22.851Z,1.17
2023-04-12T17:36:50.755Z,2.58
2023-04-12T17:39:18.359Z,5.25
2023-04-12T17:41:46.975Z,5.07
2023-04-12T17:44:14.879Z,4.65
2023-04-12T17:46:43.551Z,4.55
2023-04-12T17:49:11.104Z,4.60
2023-04-12T17:51:38.922Z,6.30
2023-04-12T17:54:06.503Z,7.43
2023-04-12T17:56:33.926Z,5.05
2023-04-12T17:59:02.564Z,4.40
2023-04-12T18:01:31.635Z,4.62
2023-04-12T18:04:02.621Z,4.22
2023-04-12T18:06:31.651Z,4.00
2023-04-12T18:08:59.599Z,3.35
2023-04-12T18:11:27.528Z,2.78
2023-04-12T18:13:55.220Z,2.72
2023-04-12T18:16:23.297Z,2.83
2023-04-12T18:18:50.835Z,1.77
2023-04-12T18:21:21.347Z,2.28
2023-04-12T18:23:49.332Z,2.30
2023-04-12T18:26:17.057Z,1.65
2023-04-12T18:28:44.471Z,2.15
2023-04-12T18:31:12.503Z,3.45
2023-04-12T18:33:39.941Z,7.35
2023-04-12T18:36:07.667Z,8.50
2023-04-12T18:38:36.195Z,6.03
2023-04-12T18:41:06.021Z,5.03
2023-04-12T18:43:33.428Z,3.75
2023-04-12T18:46:01.499Z,3.45
2023-04-12T18:48:30.322Z,3.70
2023-04-12T18:50:59.402Z,2.87
2023-04-12T18:53:27.201Z,2.22
2023-04-12T18:55:54.852Z,2.25
2023-04-12T18:58:23.584Z,3.05
2023-04-12T19:00:51.733Z,2.67
2023-04-12T19:03:19.259Z,3.85
2023-04-12T19:05:46.818Z,2.30
2023-04-12T19:08:15.186Z,1.83
2023-04-12T19:10:42.692Z,2.33
2023-04-12T19:13:10.152Z,3.42
2023-04-12T19:15:38.324Z,2.33
2023-04-12T19:18:06.176Z,2.33
2023-04-12T19:20:33.891Z,2.22
2023-04-12T19:23:02.187Z,2.25
2023-04-12T19:25:31.626Z,1.90
2023-04-12T19:28:00.512Z,1.52
2023-04-12T19:30:32.066Z,1.70
2023-04-12T19:32:59.933Z,2.47
2023-04-12T19:35:32.660Z,2.60
2023-04-12T19:38:00.107Z,2.47
2023-04-12T19:40:29.828Z,1.95
2023-04-12T19:42:58.444Z,1.87
2023-04-12T19:45:27.932Z,2.60
2023-04-12T19:47:55.957Z,1.48
2023-04-12T19:50:23.533Z,2.28
2023-04-12T19:52:51.788Z,1.15
2023-04-12T19:55:21.546Z,2.50
2023-04-12T19:57:49.133Z,2.72
2023-04-12T20:00:20.650Z,2.97
2023-04-12T20:02:49.454Z,1.70
2023-04-12T20:05:17.150Z,2.00
2023-04-12T20:07:44.589Z,2.25
2023-04-12T20:10:13.392Z,2.00
2023-04-12T20:12:41.369Z,1.77
2023-04-12T20:15:11.735Z,1.10
2023-04-12T20:17:48.455Z,1.20
2023-04-12T20:20:16.083Z,1.73
2023-04-12T20:22:46.044Z,2.20
2023-04-12T20:25:14.687Z,1.42
2023-04-12T20:27:44.676Z,1.62
2023-04-12T20:30:16.929Z,1.15
2023-04-12T20:32:44.545Z,1.12
2023-04-12T20:35:15.312Z,2.15
2023-04-12T20:37:43.325Z,1.75
2023-04-12T20:40:11.519Z,1.70
2023-04-12T20:42:39.305Z,1.95
2023-04-12T20:45:07.693Z,1.73
2023-04-12T20:47:35.631Z,1.05
2023-04-12T20:50:04.579Z,1.85
2023-04-12T20:52:32.232Z,2.60
2023-04-12T20:54:59.644Z,3.78
2023-04-12T20:57:27.609Z,3.20
2023-04-12T20:59:55.418Z,3.15
2023-04-12T21:02:23.163Z,1.35
2023-04-12T21:04:51.485Z,2.87
2023-04-12T21:07:20.255Z,2.00
2023-04-12T21:09:48.332Z,2.58
2023-04-12T21:12:17.654Z,1.77
2023-04-12T21:14:50.049Z,2.05
2023-04-12T21:17:22.413Z,2.25
2023-04-12T21:19:50.298Z,2.83
2023-04-12T21:22:18.230Z,2.67
2023-04-12T21:24:45.586Z,2.37
2023-04-12T21:27:14.605Z,1.98
2023-04-12T21:29:42.338Z,2.90
2023-04-12T21:32:09.791Z,1.67
2023-04-12T21:34:37.438Z,1.48
2023-04-12T21:37:05.493Z,1.75
2023-04-12T21:39:33.259Z,2.22
2023-04-12T21:42:01.641Z,2.37
2023-04-12T21:44:30.859Z,1.65
2023-04-12T21:46:58.260Z,2.65
2023-04-12T21:49:25.688Z,1.40
2023-04-12T21:51:56.923Z,1.90
2023-04-12T21:54:24.309Z,1.55
2023-04-12T21:56:51.682Z,1.35
2023-04-12T21:59:19.293Z,1.62
2023-04-12T22:01:46.844Z,1.20
2023-04-12T22:04:14.552Z,1.58
2023-04-12T22:06:44.542Z,3.47
2023-04-12T22:09:11.905Z,2.42
2023-04-12T22:11:39.538Z,2.87
2023-04-12T22:14:07.068Z,1.65
2023-04-12T22:16:34.796Z,1.70
2023-04-12T22:19:02.661Z,1.83
2023-04-12T22:21:30.862Z,3.12
2023-04-12T22:23:58.890Z,1.50
2023-04-12T22:26:26.859Z,2.05
2023-04-12T22:28:54.294Z,2.08
2023-04-12T22:31:22.976Z,3.33
2023-04-12T22:33:54.998Z,1.05
2023-04-12T22:36:28.580Z,1.40
2023-04-12T22:38:57.345Z,2.28
2023-04-12T22:41:28.283Z,1.40
2023-04-12T22:44:01.357Z,2.05
2023-04-12T22:46:32.959Z,1.30
2023-04-12T22:49:04.696Z,1.95
2023-04-12T22:51:32.596Z,2.45
2023-04-12T22:54:00.444Z,1.83
2023-04-12T22:56:29.230Z,3.03
2023-04-12T22:58:56.970Z,3.58
2023-04-12T23:01:25.205Z,1.80
2023-04-12T23:03:52.664Z,1.35
2023-04-12T23:06:20.586Z,1.52
2023-04-12T23:08:49.650Z,2.97
2023-04-12T23:11:17.205Z,2.40
2023-04-12T23:13:44.930Z,1.98
2023-04-12T23:16:12.434Z,1.98
2023-04-12T23:18:39.853Z,1.80
2023-04-12T23:21:11.108Z,1.25
2023-04-12T23:23:38.617Z,1.62
2023-04-12T23:26:06.236Z,2.42
2023-04-12T23:28:34.330Z,3.17
2023-04-12T23:31:01.757Z,1.90
2023-04-12T23:33:29.162Z,2.53
2023-04-12T23:35:57.100Z,2.28
2023-04-12T23:38:32.010Z,2.60
2023-04-12T23:43:28.381Z,2.30
2023-04-12T23:45:56.552Z,2.83
2023-04-12T23:48:24.923Z,2.17
2023-04-12T23:50:52.305Z,2.67
2023-04-12T23:53:20.554Z,3.03
2023-04-12T23:55:51.269Z,3.30
2023-04-12T23:58:19.554Z,3.03
